Time;durP1;ratioP1;P1;durP2;ratioP2;P2;SDS_P1;SDS_P2;PMS_P1;PMS_P2;Temp;Humidity;BMP_temperature;BMP_pressure;BME280_temperature;BME280_humidity;BME280_pressure;Samples;Min_cycle;Max_cycle;Signal;HPM_P1;HPM_P2
2022/06/27 00:00:29;;;;;;;4.70;2.50;;;20.80;88.50;;;;;;5001643;28;20029;-79
2022/06/27 00:02:54;;;;;;;3.92;2.20;;;20.80;88.50;;;;;;5025901;28;20045;-80
2022/06/27 00:05:20;;;;;;;5.60;2.90;;;20.80;88.40;;;;;;4995374;28;20026;-79
2022/06/27 00:07:45;;;;;;;4.60;2.63;;;20.90;88.40;;;;;;5028037;28;20101;-80
2022/06/27 00:10:11;;;;;;;4.93;2.42;;;20.90;88.20;;;;;;5011706;28;20030;-78
2022/06/27 00:12:38;;;;;;;4.03;2.30;;;20.90;88.10;;;;;;5015095;28;20079;-80
2022/06/27 00:15:05;;;;;;;4.03;2.42;;;20.90;88.10;;;;;;5013869;28;20025;-79
2022/06/27 00:17:31;;;;;;;4.40;2.53;;;20.90;88.00;;;;;;5012675;28;20018;-79
2022/06/27 00:19:57;;;;;;;4.25;2.60;;;20.80;88.00;;;;;;5012226;28;20022;-79
2022/06/27 00:22:22;;;;;;;3.63;2.33;;;20.80;88.20;;;;;;5029893;28;20025;-78
2022/06/27 00:24:48;;;;;;;4.13;2.70;;;20.90;88.40;;;;;;5011765;28;20013;-78
2022/06/27 00:27:13;;;;;;;3.78;2.40;;;20.80;88.40;;;;;;5029953;28;20104;-79
2022/06/27 00:29:40;;;;;;;5.22;2.40;;;20.80;88.30;;;;;;5029573;28;20048;-79
2022/06/27 00:32:06;;;;;;;4.07;2.53;;;20.80;88.40;;;;;;5011777;28;20040;-78
2022/06/27 00:34:32;;;;;;;4.95;2.42;;;20.80;88.60;;;;;;5011928;28;20478;-79
2022/06/27 00:36:57;;;;;;;3.55;2.30;;;20.80;88.60;;;;;;5029806;28;20029;-78
2022/06/27 00:39:23;;;;;;;6.00;2.50;;;20.80;88.60;;;;;;5011680;28;20095;-78
2022/06/27 00:41:48;;;;;;;4.38;2.67;;;20.80;88.50;;;;;;5011816;28;20017;-80
2022/06/27 00:44:36;;;;;;;4.10;2.55;;;20.80;88.50;;;;;;4995644;28;20529;-78
2022/06/27 00:47:05;;;;;;;3.65;2.35;;;20.80;88.50;;;;;;4992048;28;20105;-79
2022/06/27 00:49:30;;;;;;;4.10;2.40;;;20.80;88.60;;;;;;4991056;28;20032;-80
2022/06/27 00:51:56;;;;;;;4.22;2.53;;;20.80;88.60;;;;;;4991892;28;20422;-81
2022/06/27 00:54:23;;;;;;;4.18;2.55;;;20.80;88.60;;;;;;4995333;28;20030;-80
2022/06/27 00:56:50;;;;;;;3.85;2.30;;;20.80;88.70;;;;;;4996766;28;20064;-80
2022/06/27 00:59:15;;;;;;;4.88;2.60;;;20.90;88.40;;;;;;4995535;28;20061;-79
2022/06/27 01:01:41;;;;;;;3.75;2.33;;;20.90;88.30;;;;;;4999732;28;20037;-79
2022/06/27 01:04:07;;;;;;;4.78;2.40;;;20.90;88.20;;;;;;5013807;28;20036;-79
2022/06/27 01:06:33;;;;;;;4.10;2.70;;;20.90;88.20;;;;;;5013557;28;20116;-80
2022/06/27 01:08:59;;;;;;;4.30;2.60;;;20.90;88.10;;;;;;5013566;28;20471;-81
2022/06/27 01:11:24;;;;;;;4.53;2.80;;;20.90;88.20;;;;;;5031753;28;20045;-80
2022/06/27 01:13:50;;;;;;;4.00;2.60;;;20.80;88.30;;;;;;4996866;28;20063;-80
2022/06/27 01:16:16;;;;;;;3.95;2.50;;;20.80;88.40;;;;;;4992664;28;20069;-79
2022/06/27 01:18:42;;;;;;;3.92;2.40;;;20.80;88.50;;;;;;5030514;28;20466;-79
2022/06/27 01:21:08;;;;;;;3.63;2.47;;;20.80;88.50;;;;;;5014224;28;20140;-80
2022/06/27 01:23:34;;;;;;;4.30;2.65;;;20.80;88.60;;;;;;5002043;28;20041;-80
2022/06/27 01:26:00;;;;;;;4.03;2.20;;;20.80;88.70;;;;;;5027396;28;20014;-79
2022/06/27 01:28:26;;;;;;;4.43;2.30;;;20.80;88.60;;;;;;5011775;28;20025;-79
2022/06/27 01:30:51;;;;;;;5.05;2.65;;;20.80;88.70;;;;;;5012007;28;20490;-78
2022/06/27 01:33:17;;;;;;;6.25;2.55;;;20.80;88.70;;;;;;4993020;28;20021;-79
2022/06/27 01:35:42;;;;;;;3.28;2.28;;;20.80;88.70;;;;;;4990677;28;20037;-79
2022/06/27 01:38:08;;;;;;;3.67;2.38;;;20.70;88.60;;;;;;4991699;28;20077;-79
2022/06/27 01:40:34;;;;;;;4.05;2.45;;;20.80;88.70;;;;;;5004066;28;20031;-79
2022/06/27 01:42:59;;;;;;;3.83;2.33;;;20.80;88.70;;;;;;5022121;28;20108;-79
2022/06/27 01:45:27;;;;;;;4.43;2.50;;;20.80;88.70;;;;;;5007567;28;20413;-79
2022/06/27 01:47:53;;;;;;;4.20;2.30;;;20.80;88.60;;;;;;5004920;28;20129;-80
2022/06/27 01:50:20;;;;;;;4.30;2.28;;;20.80;88.50;;;;;;5006172;28;20117;-77
2022/06/27 01:52:49;;;;;;;3.58;2.10;;;20.90;88.40;;;;;;4988143;28;20038;-79
2022/06/27 01:55:15;;;;;;;3.83;2.35;;;20.90;88.30;;;;;;5021377;28;20029;-79
2022/06/27 01:57:42;;;;;;;3.92;2.50;;;20.90;88.20;;;;;;5021235;28;20434;-77
2022/06/27 02:00:09;;;;;;;4.00;2.40;;;20.80;88.20;;;;;;5006662;28;20037;-80
2022/06/27 02:02:35;;;;;;;4.15;2.67;;;20.80;88.40;;;;;;5012887;28;20105;-79
2022/06/27 02:05:01;;;;;;;3.47;2.30;;;20.80;88.50;;;;;;5011050;28;20113;-79
2022/06/27 02:07:27;;;;;;;4.32;2.58;;;20.80;88.50;;;;;;5015913;28;20125;-79
2022/06/27 02:09:52;;;;;;;3.88;2.60;;;20.80;88.50;;;;;;5030809;28;20550;-77
2022/06/27 02:12:18;;;;;;;3.75;2.45;;;20.80;88.60;;;;;;5030800;28;20030;-78
2022/06/27 02:14:45;;;;;;;4.43;2.42;;;20.80;88.80;;;;;;5015431;28;20061;-78
2022/06/27 02:17:11;;;;;;;4.38;2.60;;;20.80;88.80;;;;;;4998097;28;20505;-79
2022/06/27 02:19:37;;;;;;;4.68;2.60;;;20.80;88.80;;;;;;5030819;28;20029;-78
2022/06/27 02:22:02;;;;;;;3.60;2.30;;;20.80;88.80;;;;;;5030949;28;20022;-78
2022/06/27 02:24:28;;;;;;;4.00;2.45;;;20.70;88.70;;;;;;5014870;28;20026;-79
2022/06/27 02:26:54;;;;;;;4.60;2.70;;;20.70;88.80;;;;;;4997704;28;20022;-79
2022/06/27 02:29:20;;;;;;;4.35;2.40;;;20.70;88.80;;;;;;5030103;28;20063;-79
2022/06/27 02:31:48;;;;;;;4.55;2.45;;;20.70;88.80;;;;;;5014022;28;20045;-80
2022/06/27 02:34:15;;;;;;;3.72;2.30;;;20.70;88.80;;;;;;4998045;28;20065;-78
2022/06/27 02:36:44;;;;;;;3.58;2.30;;;20.80;88.80;;;;;;5030708;28;20038;-77
2022/06/27 02:39:12;;;;;;;4.13;2.40;;;20.80;88.70;;;;;;5030725;28;20029;-78
2022/06/27 02:41:40;;;;;;;4.63;2.70;;;20.80;88.50;;;;;;5015829;28;20049;-78
2022/06/27 02:44:08;;;;;;;3.70;2.30;;;20.80;88.40;;;;;;4993429;28;20101;-79
2022/06/27 02:46:33;;;;;;;4.03;2.60;;;20.80;88.40;;;;;;4998157;28;20089;-79
2022/06/27 02:49:02;;;;;;;3.97;2.17;;;20.90;88.30;;;;;;4994496;28;20026;-79
2022/06/27 02:51:35;;;;;;;3.53;2.10;;;20.80;88.30;;;;;;5010222;28;20096;-78
2022/06/27 02:54:16;;;;;;;3.65;2.20;;;20.80;88.50;;;;;;5018232;28;20087;-79
2022/06/27 02:57:15;;;;;;;3.83;2.40;;;20.80;88.60;;;;;;5000697;28;20034;-80
2022/06/27 02:59:42;;;;;;;3.88;2.45;;;20.80;88.70;;;;;;5000477;28;20714;-80
2022/06/27 03:02:09;;;;;;;4.55;2.60;;;20.80;88.80;;;;;;5016298;28;20026;-79
2022/06/27 03:04:35;;;;;;;4.47;2.38;;;20.80;88.80;;;;;;5021764;28;20014;-80
2022/06/27 03:07:01;;;;;;;3.88;2.53;;;20.80;88.80;;;;;;5037960;28;20024;-79
2022/06/27 03:09:26;;;;;;;3.85;2.42;;;20.80;88.90;;;;;;5021308;28;20041;-79
2022/06/27 03:11:52;;;;;;;3.25;2.15;;;20.70;88.70;;;;;;5023551;28;20458;-79
2022/06/27 03:14:17;;;;;;;3.90;2.40;;;20.70;88.80;;;;;;4990594;28;20022;-79
2022/06/27 03:16:43;;;;;;;3.95;2.38;;;20.70;89.00;;;;;;5030321;28;20033;-79
2022/06/27 03:19:09;;;;;;;4.45;2.80;;;20.70;88.80;;;;;;4997611;28;20471;-79
2022/06/27 03:21:34;;;;;;;4.47;2.40;;;20.70;88.90;;;;;;5013470;28;20024;-79
2022/06/27 03:24:00;;;;;;;3.95;2.40;;;20.70;88.90;;;;;;4996821;28;20022;-79
2022/06/27 03:26:26;;;;;;;4.03;2.53;;;20.70;88.80;;;;;;5013956;28;20030;-79
2022/06/27 03:28:52;;;;;;;4.10;2.42;;;20.70;88.70;;;;;;4996406;28;20028;-79
2022/06/27 03:31:17;;;;;;;3.38;2.28;;;20.80;88.60;;;;;;4994444;28;20026;-79
2022/06/27 03:33:43;;;;;;;3.30;2.10;;;20.80;88.50;;;;;;4994311;28;20785;-78
2022/06/27 03:36:09;;;;;;;3.00;2.20;;;20.80;88.40;;;;;;5010203;28;20029;-78
2022/06/27 03:38:35;;;;;;;3.67;2.20;;;20.80;88.80;;;;;;5007293;28;20039;-79
2022/06/27 03:41:01;;;;;;;3.35;2.33;;;20.80;88.30;;;;;;5011595;28;20014;-79
2022/06/27 03:43:27;;;;;;;3.50;2.28;;;20.80;88.40;;;;;;5010784;28;20364;-79
2022/06/27 03:45:53;;;;;;;3.90;2.40;;;20.80;88.60;;;;;;5011004;28;20478;-80
2022/06/27 03:51:03;;;;;;;3.50;2.53;;;20.70;88.80;;;;;;5011396;28;20036;-79
2022/06/27 03:53:29;;;;;;;4.10;2.33;;;20.70;88.80;;;;;;5010744;28;20425;-78
2022/06/27 03:55:54;;;;;;;3.10;2.17;;;20.70;88.80;;;;;;4993295;28;20574;-79
2022/06/27 03:58:20;;;;;;;3.83;2.40;;;20.70;88.90;;;;;;5026724;28;20046;-78
2022/06/27 04:00:45;;;;;;;4.20;2.60;;;20.70;88.80;;;;;;5026158;28;20786;-78
2022/06/27 04:03:11;;;;;;;3.40;2.10;;;20.70;88.90;;;;;;5025906;28;20364;-79
2022/06/27 04:05:37;;;;;;;4.18;2.50;;;20.70;88.90;;;;;;5025853;28;20050;-78
2022/06/27 04:08:02;;;;;;;3.83;2.22;;;20.70;89.00;;;;;;5025706;28;20087;-79
2022/06/27 04:10:28;;;;;;;4.38;2.50;;;20.70;88.90;;;;;;5013158;28;20026;-78
2022/06/27 04:12:53;;;;;;;3.75;2.40;;;20.70;88.90;;;;;;5030022;28;20421;-79
2022/06/27 04:15:19;;;;;;;4.18;2.30;;;20.70;88.90;;;;;;5029132;28;20060;-79
2022/06/27 04:17:44;;;;;;;4.18;2.42;;;20.70;88.90;;;;;;5013720;28;20067;-79
2022/06/27 04:20:11;;;;;;;4.07;2.42;;;20.80;88.80;;;;;;5031411;28;20485;-80
2022/06/27 04:22:36;;;;;;;3.10;2.10;;;20.80;88.70;;;;;;5016390;28;20594;-79
2022/06/27 04:25:02;;;;;;;4.38;2.40;;;20.80;88.60;;;;;;5015609;28;20116;-79
2022/06/27 04:27:28;;;;;;;3.30;2.10;;;20.80;88.50;;;;;;5016467;28;20075;-79
2022/06/27 04:29:54;;;;;;;3.55;2.30;;;20.80;88.40;;;;;;5016240;28;20029;-79
2022/06/27 04:32:22;;;;;;;3.58;2.47;;;20.80;88.50;;;;;;5015073;28;20057;-76
2022/06/27 04:34:48;;;;;;;3.50;2.28;;;20.80;88.60;;;;;;5015654;28;20481;-79
2022/06/27 04:37:15;;;;;;;4.25;2.50;;;20.80;88.70;;;;;;5015585;28;20474;-79
2022/06/27 04:39:41;;;;;;;3.92;2.38;;;20.80;88.80;;;;;;5025526;28;20450;-82
2022/06/27 04:42:07;;;;;;;4.43;2.55;;;20.70;88.80;;;;;;5015559;28;20101;-81
2022/06/27 04:44:34;;;;;;;3.70;2.35;;;20.70;88.90;;;;;;5026801;28;20029;-80
2022/06/27 04:47:02;;;;;;;3.53;2.35;;;20.70;88.90;;;;;;5005064;28;20026;-82
2022/06/27 04:49:28;;;;;;;3.85;2.45;;;20.70;88.90;;;;;;4992747;28;20038;-79
2022/06/27 04:51:55;;;;;;;3.22;2.10;;;20.70;89.00;;;;;;4995385;28;20026;-81
2022/06/27 04:54:22;;;;;;;3.72;2.30;;;20.70;88.90;;;;;;5012810;28;20025;-81
2022/06/27 04:56:48;;;;;;;4.28;2.70;;;20.70;89.10;;;;;;5008388;28;20112;-80
2022/06/27 04:59:14;;;;;;;3.53;2.22;;;20.70;89.10;;;;;;4998265;28;20030;-80
2022/06/27 05:01:40;;;;;;;3.60;2.42;;;20.70;89.00;;;;;;5010615;28;20018;-80
2022/06/27 05:04:05;;;;;;;3.42;2.40;;;20.70;89.00;;;;;;4994488;28;20117;-80
2022/06/27 05:06:31;;;;;;;3.45;2.30;;;20.70;89.00;;;;;;5012148;28;20029;-78
2022/06/27 05:08:58;;;;;;;3.58;2.33;;;20.70;88.90;;;;;;5012674;28;20082;-78
2022/06/27 05:11:23;;;;;;;3.63;2.10;;;20.70;88.80;;;;;;5014779;28;20056;-81
2022/06/27 05:13:49;;;;;;;4.55;2.40;;;20.80;88.70;;;;;;4998050;28;20026;-80
2022/06/27 05:16:17;;;;;;;3.33;2.08;;;20.80;88.60;;;;;;5031275;28;20048;-79
2022/06/27 05:18:42;;;;;;;3.65;2.30;;;20.80;88.50;;;;;;5004131;28;20029;-80
2022/06/27 05:21:09;;;;;;;3.95;2.20;;;20.70;88.40;;;;;;5003012;28;20024;-80
2022/06/27 05:23:38;;;;;;;4.38;2.45;;;20.80;88.50;;;;;;5004375;28;20030;-79
2022/06/27 05:26:05;;;;;;;4.93;2.50;;;21.40;89.00;;;;;;5039377;28;20695;-78
2022/06/27 05:28:30;;;;;;;4.70;2.75;;;20.70;88.70;;;;;;5001345;28;20048;-78
2022/06/27 05:30:56;;;;;;;4.55;2.78;;;20.70;88.80;;;;;;5025046;28;20047;-80
2022/06/27 05:33:22;;;;;;;3.53;2.47;;;20.70;88.90;;;;;;5006217;28;20558;-80
2022/06/27 05:35:49;;;;;;;3.65;2.40;;;20.70;89.00;;;;;;5026686;28;20113;-79
2022/06/27 05:38:15;;;;;;;3.58;2.30;;;20.70;89.00;;;;;;5021877;28;20117;-81
2022/06/27 05:40:41;;;;;;;3.90;2.60;;;20.80;89.00;;;;;;5001203;28;20573;-79
2022/06/27 05:43:07;;;;;;;3.55;2.20;;;20.70;89.00;;;;;;5019068;28;20024;-81
2022/06/27 05:45:33;;;;;;;4.30;2.45;;;20.70;89.00;;;;;;5002589;28;20161;-80
2022/06/27 05:48:03;;;;;;;3.72;2.33;;;20.70;89.10;;;;;;5001966;28;20086;-80
2022/06/27 05:50:30;;;;;;;3.88;2.45;;;20.70;89.10;;;;;;5000935;28;20417;-80
2022/06/27 05:52:59;;;;;;;3.55;2.47;;;20.70;89.00;;;;;;5002175;28;20048;-81
2022/06/27 05:55:25;;;;;;;4.70;2.80;;;20.70;89.10;;;;;;5001654;28;20053;-81
2022/06/27 05:57:52;;;;;;;3.63;2.30;;;20.70;89.10;;;;;;5019377;28;20125;-80
2022/06/27 06:00:18;;;;;;;3.75;2.47;;;20.70;89.00;;;;;;5018828;28;20045;-82
2022/06/27 06:02:43;;;;;;;3.33;2.40;;;20.70;88.90;;;;;;5003529;28;20029;-81
2022/06/27 06:05:11;;;;;;;4.22;2.50;;;20.80;88.80;;;;;;5020608;28;20033;-81
2022/06/27 06:07:37;;;;;;;3.72;2.17;;;20.80;88.70;;;;;;5019634;28;20021;-80
2022/06/27 06:10:04;;;;;;;4.35;2.40;;;20.80;88.50;;;;;;5020259;28;20530;-79
2022/06/27 06:12:30;;;;;;;3.72;2.38;;;20.80;88.50;;;;;;5020557;28;20050;-82
2022/06/27 06:15:02;;;;;;;4.40;2.67;;;20.80;88.50;;;;;;5021440;28;20018;-80
2022/06/27 06:17:28;;;;;;;;;;;20.70;88.60;;;;;;5026536;28;20033;-81
2022/06/27 06:19:53;;;;;;;4.03;2.50;;;20.90;88.80;;;;;;5020376;28;19918;-81
2022/06/27 06:22:19;;;;;;;4.00;2.58;;;20.70;88.80;;;;;;5020641;28;20028;-81
2022/06/27 06:24:47;;;;;;;5.75;3.25;;;20.70;88.90;;;;;;5020142;28;20032;-81
2022/06/27 06:27:13;;;;;;;5.78;3.20;;;20.70;88.90;;;;;;5019921;28;20039;-82
2022/06/27 06:29:40;;;;;;;7.10;3.10;;;20.60;89.00;;;;;;5020214;28;20037;-81
2022/06/27 06:32:07;;;;;;;6.45;3.13;;;20.70;89.10;;;;;;5017483;28;20022;-79
2022/06/27 06:34:33;;;;;;;5.13;3.17;;;20.70;89.20;;;;;;5018313;28;21108;-81
2022/06/27 06:36:59;;;;;;;5.15;3.47;;;20.70;89.20;;;;;;5001203;28;20057;-81
2022/06/27 06:39:24;;;;;;;4.95;3.00;;;20.70;89.20;;;;;;5017288;28;20026;-81
2022/06/27 06:41:50;;;;;;;4.65;2.88;;;20.70;89.20;;;;;;5001881;28;20026;-78
2022/06/27 06:44:17;;;;;;;5.30;3.05;;;20.70;89.10;;;;;;5000160;28;20100;-81
2022/06/27 06:46:43;;;;;;;4.93;2.72;;;20.70;89.10;;;;;;4998814;28;20073;-82
2022/06/27 06:49:09;;;;;;;5.40;3.10;;;20.70;89.10;;;;;;5003484;28;20072;-81
2022/06/27 06:51:36;;;;;;;5.50;2.92;;;20.70;88.90;;;;;;5004818;28;20029;-81
2022/06/27 06:54:04;;;;;;;6.18;3.00;;;20.70;88.80;;;;;;5004372;28;20038;-82
2022/06/27 06:56:30;;;;;;;4.68;2.90;;;20.80;88.70;;;;;;5004891;28;20057;-81
2022/06/27 06:58:59;;;;;;;4.57;2.90;;;20.80;88.60;;;;;;5004480;28;20018;-81
2022/06/27 07:01:27;;;;;;;5.13;2.90;;;20.80;88.50;;;;;;5004680;28;20026;-81
2022/06/27 07:03:54;;;;;;;4.32;2.90;;;22.00;89.20;;;;;;5004251;28;20033;-81
2022/06/27 07:06:24;;;;;;;5.85;3.30;;;20.80;88.60;;;;;;5003650;28;20399;-81
2022/06/27 07:08:53;;;;;;;4.57;2.90;;;20.80;88.70;;;;;;5004287;28;20062;-81
2022/06/27 07:11:22;;;;;;;4.78;2.97;;;20.70;88.70;;;;;;5003395;28;20026;-82
2022/06/27 07:13:51;;;;;;;4.53;3.00;;;20.70;88.80;;;;;;5020817;28;20048;-81
2022/06/27 07:16:21;;;;;;;5.35;3.00;;;20.70;88.90;;;;;;5004207;28;20190;-81
2022/06/27 07:18:51;;;;;;;4.57;2.90;;;20.70;88.90;;;;;;5020632;28;20018;-81
2022/06/27 07:21:19;;;;;;;3.92;2.70;;;20.70;89.00;;;;;;5021422;28;20030;-82
2022/06/27 07:23:47;;;;;;;5.53;3.30;;;20.70;89.00;;;;;;5003647;28;20053;-81
2022/06/27 07:26:13;;;;;;;4.82;3.05;;;20.70;89.00;;;;;;5004179;28;20506;-82
2022/06/27 07:28:40;;;;;;;5.15;3.25;;;20.70;89.10;;;;;;5003789;28;20026;-81
2022/06/27 07:31:08;;;;;;;5.10;3.13;;;20.70;89.10;;;;;;5003528;28;20109;-81
2022/06/27 07:33:36;;;;;;;5.35;3.40;;;20.70;89.10;;;;;;5004616;28;20034;-82
2022/06/27 07:36:03;;;;;;;4.28;2.90;;;20.70;89.10;;;;;;5005840;28;20199;-82
2022/06/27 07:38:32;;;;;;;4.97;2.90;;;20.70;89.10;;;;;;5021688;28;20040;-82
2022/06/27 07:40:58;;;;;;;5.05;2.92;;;20.70;89.10;;;;;;5005535;28;20030;-82
2022/06/27 07:43:23;;;;;;;6.22;3.38;;;20.70;89.00;;;;;;5004001;28;20129;-82
2022/06/27 07:45:50;;;;;;;4.40;2.88;;;20.80;88.90;;;;;;5004277;28;20080;-82
2022/06/27 07:48:17;;;;;;;4.93;2.97;;;20.80;88.70;;;;;;5004521;28;20030;-82
2022/06/27 07:50:43;;;;;;;5.00;3.10;;;20.80;88.60;;;;;;5004135;28;20265;-82
2022/06/27 07:53:11;;;;;;;4.50;2.88;;;20.80;88.50;;;;;;5003377;28;20029;-80
2022/06/27 07:55:39;;;;;;;4.75;2.95;;;21.70;89.50;;;;;;5003498;28;20037;-81
2022/06/27 07:58:06;;;;;;;4.63;3.08;;;20.90;88.60;;;;;;5003329;28;20033;-81
2022/06/27 08:00:31;;;;;;;4.82;3.10;;;20.80;88.70;;;;;;5003269;28;20443;-82
2022/06/27 08:02:57;;;;;;;5.88;3.20;;;20.70;88.70;;;;;;5004028;28;20022;-81
2022/06/27 08:05:22;;;;;;;4.55;3.03;;;20.70;88.80;;;;;;5004050;28;20014;-82
2022/06/27 08:07:49;;;;;;;5.70;3.35;;;20.70;88.80;;;;;;5003863;28;20545;-82
2022/06/27 08:10:15;;;;;;;5.18;3.13;;;20.70;88.70;;;;;;5019723;28;20394;-81
2022/06/27 08:12:40;;;;;;;6.28;3.17;;;20.80;88.80;;;;;;5036123;28;20026;-81
2022/06/27 08:15:06;;;;;;;4.70;3.17;;;20.70;88.80;;;;;;5028776;28;20108;-81
2022/06/27 08:17:32;;;;;;;5.35;3.47;;;20.80;88.80;;;;;;5011740;28;20033;-82
2022/06/27 08:19:58;;;;;;;5.38;3.40;;;20.70;88.80;;;;;;5001807;28;20033;-81
2022/06/27 08:22:24;;;;;;;4.47;2.63;;;20.80;88.70;;;;;;5034601;28;20033;-80
2022/06/27 08:24:50;;;;;;;5.18;3.28;;;20.70;88.70;;;;;;5017451;28;20033;-82
2022/06/27 08:27:15;;;;;;;4.03;2.75;;;20.70;88.60;;;;;;5018569;28;20025;-81
2022/06/27 08:29:41;;;;;;;4.88;3.05;;;20.80;88.70;;;;;;5036183;28;20472;-81
2022/06/27 08:32:07;;;;;;;5.28;3.20;;;20.80;88.60;;;;;;5034992;28;20297;-82
2022/06/27 08:34:33;;;;;;;5.13;3.20;;;20.80;88.50;;;;;;5034666;28;20022;-81
2022/06/27 08:36:59;;;;;;;4.70;2.97;;;20.90;88.50;;;;;;5034738;28;20037;-82
2022/06/27 08:39:25;;;;;;;6.20;3.05;;;20.90;88.30;;;;;;5035372;28;20037;-81
2022/06/27 08:41:51;;;;;;;5.05;3.13;;;20.90;88.30;;;;;;5019571;28;20026;-81
2022/06/27 08:44:17;;;;;;;4.88;3.10;;;20.80;88.20;;;;;;5034864;28;20037;-81
2022/06/27 08:46:46;;;;;;;6.50;3.05;;;20.70;88.10;;;;;;5034945;28;20030;-82
2022/06/27 08:49:14;;;;;;;5.32;3.28;;;20.90;88.40;;;;;;5020406;28;20026;-82
2022/06/27 08:51:41;;;;;;;5.00;3.17;;;20.80;88.40;;;;;;5034897;28;20030;-81
2022/06/27 08:54:07;;;;;;;5.15;3.20;;;20.80;88.50;;;;;;5034670;28;20057;-80
2022/06/27 08:56:33;;;;;;;5.45;3.17;;;20.80;88.50;;;;;;5035253;28;20060;-81
2022/06/27 08:58:59;;;;;;;6.18;3.20;;;20.80;88.60;;;;;;5019688;28;20034;-82
2022/06/27 09:01:27;;;;;;;4.93;3.05;;;20.80;88.60;;;;;;5034668;28;20133;-81
2022/06/27 09:04:00;;;;;;;4.68;3.17;;;20.80;88.70;;;;;;5019370;28;20306;-80
2022/06/27 09:06:47;;;;;;;6.25;3.20;;;20.80;88.70;;;;;;5034973;28;20495;-81
2022/06/27 09:09:15;;;;;;;5.43;3.20;;;20.80;88.80;;;;;;4994681;28;20046;-81
2022/06/27 09:11:46;;;;;;;5.65;3.30;;;20.70;88.80;;;;;;5017207;28;20451;-82
2022/06/27 09:14:33;;;;;;;5.43;3.25;;;20.70;88.60;;;;;;5034468;28;20034;-82
2022/06/27 09:17:00;;;;;;;5.18;3.42;;;20.70;88.70;;;;;;5018592;28;20057;-82
2022/06/27 09:19:44;;;;;;;5.32;3.10;;;20.80;88.90;;;;;;5034840;28;20057;-82
2022/06/27 09:22:14;;;;;;;5.28;3.20;;;20.70;88.80;;;;;;5019582;28;20073;-81
2022/06/27 09:24:58;;;;;;;4.53;3.08;;;21.00;88.80;;;;;;5033639;28;20033;-81
2022/06/27 09:27:45;;;;;;;5.20;3.60;;;20.80;88.60;;;;;;5034407;28;20424;-81
2022/06/27 09:30:20;;;;;;;5.07;3.30;;;20.80;88.40;;;;;;5033638;28;20033;-82
2022/06/27 09:32:48;;;;;;;4.90;3.30;;;20.90;88.40;;;;;;5001066;28;20565;-82
2022/06/27 09:35:27;;;;;;;4.57;2.92;;;20.90;88.30;;;;;;5017858;28;20108;-82
2022/06/27 09:37:59;;;;;;;4.70;2.90;;;20.90;88.30;;;;;;5020582;28;20065;-82
2022/06/27 09:40:27;;;;;;;5.05;3.20;;;20.90;88.40;;;;;;5035224;28;20026;-82
2022/06/27 09:42:55;;;;;;;4.63;3.00;;;20.80;88.40;;;;;;5035564;28;20069;-82
2022/06/27 09:45:27;;;;;;;4.63;2.95;;;20.80;88.40;;;;;;5034771;28;20030;-83
2022/06/27 09:47:58;;;;;;;4.22;2.85;;;20.80;88.40;;;;;;5018949;28;20044;-82
2022/06/27 09:50:24;;;;;;;4.75;2.95;;;20.90;88.50;;;;;;5020677;28;20141;-82
2022/06/27 09:52:51;;;;;;;5.07;3.00;;;20.80;89.10;;;;;;5018501;28;20044;-82
2022/06/27 09:55:20;;;;;;;5.03;3.30;;;20.80;88.60;;;;;;5019499;28;20026;-82
2022/06/27 09:57:46;;;;;;;4.78;3.25;;;20.80;88.80;;;;;;5018816;28;20053;-81
2022/06/27 10:00:13;;;;;;;5.10;3.20;;;20.70;88.60;;;;;;5017649;28;20030;-82
2022/06/27 10:02:39;;;;;;;5.75;3.63;;;20.80;88.80;;;;;;5017736;28;20292;-82
2022/06/27 10:05:05;;;;;;;5.00;3.20;;;20.70;88.60;;;;;;5018555;28;20549;-82
2022/06/27 10:07:31;;;;;;;5.38;3.03;;;20.70;88.70;;;;;;5018336;28;20026;-81
2022/06/27 10:09:57;;;;;;;5.28;3.47;;;20.70;88.90;;;;;;5017903;28;20030;-80
2022/06/27 10:12:34;;;;;;;5.40;3.40;;;20.80;88.90;;;;;;5017213;28;20097;-82
2022/06/27 10:15:09;;;;;;;4.70;3.10;;;20.70;88.80;;;;;;5017737;28;20568;-82
2022/06/27 10:17:56;;;;;;;5.43;3.25;;;20.80;88.70;;;;;;5034811;28;20037;-81
2022/06/27 10:20:28;;;;;;;4.82;3.17;;;20.80;88.60;;;;;;5034262;28;20093;-82
2022/06/27 10:23:09;;;;;;;5.13;3.35;;;20.80;88.50;;;;;;5036056;28;20026;-82
2022/06/27 10:25:42;;;;;;;5.72;3.50;;;20.90;88.50;;;;;;5017518;28;20544;-82
2022/06/27 10:28:14;;;;;;;4.85;3.05;;;20.80;88.90;;;;;;5002690;28;20466;-81
2022/06/27 10:30:46;;;;;;;5.00;3.22;;;20.80;88.50;;;;;;5002320;28;20027;-81
2022/06/27 10:33:18;;;;;;;5.40;3.60;;;20.80;88.60;;;;;;5018327;28;20026;-82
2022/06/27 10:35:55;;;;;;;5.10;3.15;;;20.80;89.20;;;;;;5017505;28;20038;-82
2022/06/27 10:38:31;;;;;;;5.30;3.08;;;20.70;88.70;;;;;;5002567;28;20053;-82
2022/06/27 10:40:59;;;;;;;5.43;3.45;;;20.80;88.80;;;;;;5002095;28;20578;-82
2022/06/27 10:43:39;;;;;;;5.40;3.38;;;20.70;88.70;;;;;;5002530;28;20113;-82
2022/06/27 10:46:10;;;;;;;5.30;3.38;;;20.70;88.80;;;;;;5017860;28;20042;-82
2022/06/27 10:48:41;;;;;;;4.90;3.28;;;20.70;88.90;;;;;;5017473;28;20035;-83
2022/06/27 10:51:26;;;;;;;5.45;3.17;;;20.70;88.90;;;;;;5017460;28;20495;-82
2022/06/27 10:54:14;;;;;;;4.95;3.10;;;20.70;89.00;;;;;;5017588;28;20206;-82
2022/06/27 10:56:45;;;;;;;5.30;3.45;;;20.70;88.90;;;;;;5017307;28;20026;-81
2022/06/27 10:59:14;;;;;;;5.50;3.60;;;20.70;88.90;;;;;;4987001;28;20030;-82
2022/06/27 11:02:02;;;;;;;5.88;3.70;;;20.70;89.10;;;;;;5025447;28;20037;-80
2022/06/27 11:04:34;;;;;;;5.15;3.20;;;20.70;89.10;;;;;;5016381;28;20081;-81
2022/06/27 11:07:08;;;;;;;5.28;3.55;;;20.70;89.00;;;;;;5001420;28;20026;-81
2022/06/27 11:09:45;;;;;;;5.43;3.58;;;20.70;88.90;;;;;;5003227;28;20482;-79
2022/06/27 11:12:13;;;;;;;5.00;3.00;;;20.80;88.80;;;;;;5023987;28;20403;-80
2022/06/27 11:14:52;;;;;;;5.13;3.20;;;20.80;88.70;;;;;;5006214;28;20032;-80
2022/06/27 11:17:41;;;;;;;5.47;3.40;;;20.80;88.60;;;;;;5024609;28;20501;-80
2022/06/27 11:20:15;;;;;;;4.90;3.25;;;20.80;88.70;;;;;;4987313;28;20141;-80
2022/06/27 11:22:51;;;;;;;5.10;3.28;;;20.70;88.70;;;;;;5016304;28;20061;-80
2022/06/27 11:25:19;;;;;;;5.85;3.72;;;20.80;88.80;;;;;;4997453;28;20026;-80
2022/06/27 11:27:50;;;;;;;6.00;3.72;;;20.70;88.90;;;;;;5002955;28;20574;-80
2022/06/27 11:33:35;;;;;;;5.15;3.40;;;20.70;89.00;;;;;;4991810;28;20052;-82
2022/06/27 11:36:01;;;;;;;5.28;3.28;;;20.70;89.00;;;;;;4999374;28;20161;-80
2022/06/27 11:38:29;;;;;;;6.20;3.72;;;20.70;89.10;;;;;;5029333;28;20435;-78
2022/06/27 11:40:59;;;;;;;5.15;3.40;;;20.70;89.10;;;;;;5034105;28;20125;-80
2022/06/27 11:43:58;;;;;;;5.53;3.30;;;20.70;89.20;;;;;;5034333;28;20042;-78
2022/06/27 11:46:49;;;;;;;5.55;3.60;;;20.70;89.20;;;;;;5027800;28;20032;-79
2022/06/27 11:49:18;;;;;;;5.30;3.33;;;20.70;89.00;;;;;;5016915;28;20389;-80
2022/06/27 11:51:50;;;;;;;5.25;3.53;;;20.70;89.00;;;;;;4996292;28;20049;-80
2022/06/27 11:54:18;;;;;;;5.53;3.85;;;20.70;89.20;;;;;;4979865;28;20316;-79
2022/06/27 11:56:47;;;;;;;5.40;3.55;;;20.70;89.20;;;;;;4995754;28;20049;-80
2022/06/27 11:59:14;;;;;;;4.85;3.10;;;20.70;89.00;;;;;;4997056;28;20034;-81
2022/06/27 12:01:53;;;;;;;5.88;3.47;;;20.80;88.90;;;;;;4996189;28;20042;-80
2022/06/27 12:04:21;;;;;;;5.93;3.70;;;20.70;88.70;;;;;;4996460;28;20023;-80
2022/06/27 12:06:50;;;;;;;5.28;3.47;;;20.80;88.70;;;;;;4997086;28;20030;-80
2022/06/27 12:09:16;;;;;;;5.45;3.65;;;20.80;88.60;;;;;;4994690;28;20483;-80
2022/06/27 12:11:57;;;;;;;5.75;3.63;;;20.80;88.60;;;;;;4995349;28;20034;-80
2022/06/27 12:14:24;;;;;;;5.60;3.30;;;20.80;88.70;;;;;;4979207;28;20113;-80
2022/06/27 12:16:53;;;;;;;5.75;3.58;;;20.80;88.80;;;;;;4994464;28;20499;-80
2022/06/27 12:19:18;;;;;;;5.78;3.65;;;20.70;88.90;;;;;;4995278;28;20907;-80
2022/06/27 12:21:45;;;;;;;5.72;3.40;;;20.70;89.00;;;;;;4978185;28;20121;-80
2022/06/27 12:24:11;;;;;;;5.60;3.90;;;20.70;89.00;;;;;;4980937;28;20026;-80
2022/06/27 12:26:37;;;;;;;5.57;3.60;;;20.70;89.10;;;;;;4998156;28;20026;-80
2022/06/27 12:29:04;;;;;;;5.78;3.60;;;20.70;89.10;;;;;;4998900;28;20041;-80
2022/06/27 12:31:35;;;;;;;5.85;3.83;;;20.70;89.20;;;;;;5016381;28;20034;-80
2022/06/27 12:34:02;;;;;;;6.25;3.78;;;20.70;89.20;;;;;;5015473;28;20030;-80
2022/06/27 12:36:30;;;;;;;6.13;3.58;;;20.70;89.20;;;;;;5014636;28;20097;-80
2022/06/27 12:38:55;;;;;;;5.78;3.67;;;20.70;89.20;;;;;;5016254;28;20061;-80
2022/06/27 12:41:21;;;;;;;5.32;3.25;;;20.70;89.10;;;;;;4998705;28;20033;-79
2022/06/27 12:43:47;;;;;;;6.45;4.00;;;20.70;89.30;;;;;;5016092;28;20025;-80
2022/06/27 12:46:15;;;;;;;5.47;3.67;;;20.70;89.30;;;;;;4997041;28;20022;-80
2022/06/27 12:48:42;;;;;;;5.45;3.42;;;20.70;89.20;;;;;;4997090;28;20033;-80
2022/06/27 12:51:08;;;;;;;5.45;3.50;;;20.70;89.10;;;;;;5014252;28;20702;-80
2022/06/27 12:53:35;;;;;;;5.45;3.60;;;20.70;88.90;;;;;;4997417;28;20084;-79
2022/06/27 12:56:02;;;;;;;4.90;3.10;;;20.70;88.90;;;;;;5015203;28;20022;-81
2022/06/27 12:58:28;;;;;;;5.63;3.47;;;20.80;88.80;;;;;;4998908;28;20030;-80